Time;durP1;ratioP1;P1;durP2;ratioP2;P2;SDS_P1;SDS_P2;PMS_P1;PMS_P2;Temp;Humidity;BMP_temperature;BMP_pressure;BME280_temperature;BME280_humidity;BME280_pressure;Samples;Min_cycle;Max_cycle;Signal;HPM_P1;HPM_P2
2023/07/04 00:00:28;;;;;;;7.27;1.70;;;;;;;18.80;67.69;100413.78;5016705;28;20447;-72
2023/07/04 00:02:54;;;;;;;6.73;2.40;;;;;;;18.78;67.70;100409.81;5016602;28;20435;-72
2023/07/04 00:05:23;;;;;;;9.20;2.70;;;;;;;18.81;66.85;100409.88;5016641;28;20876;-72
2023/07/04 00:07:49;;;;;;;10.63;2.60;;;;;;;18.82;65.67;100402.44;5016598;28;20487;-73
2023/07/04 00:10:16;;;;;;;12.70;2.73;;;;;;;18.82;65.54;100402.44;5016489;28;20550;-72
2023/07/04 00:12:43;;;;;;;8.03;2.47;;;;;;;18.77;64.66;100405.47;5016472;28;20524;-73
2023/07/04 00:15:11;;;;;;;7.70;2.40;;;;;;;18.77;64.94;100400.78;5016490;28;20454;-74
2023/07/04 00:17:39;;;;;;;7.60;2.37;;;;;;;18.73;66.28;100408.16;5016427;28;20440;-71
2023/07/04 00:20:07;;;;;;;6.80;2.53;;;;;;;18.74;64.27;100406.19;5016403;28;20464;-72
2023/07/04 00:22:33;;;;;;;10.13;3.23;;;;;;;18.77;65.25;100411.75;5016325;28;20795;-72
2023/07/04 00:25:00;;;;;;;6.20;2.10;;;;;;;18.73;64.50;100408.16;5016290;28;20456;-72
2023/07/04 00:27:27;;;;;;;9.93;2.23;;;;;;;18.75;63.89;100411.31;5016231;28;20459;-72
2023/07/04 00:29:54;;;;;;;6.90;2.13;;;;;;;18.76;64.36;100418.38;5017100;28;20477;-72
2023/07/04 00:32:21;;;;;;;10.50;2.87;;;;;;;18.75;64.04;100413.28;5016063;28;21013;-72
2023/07/04 00:34:50;;;;;;;8.47;2.43;;;;;;;18.77;63.14;100408.19;5015877;28;20447;-72
2023/07/04 00:37:21;;;;;;;8.50;2.63;;;;;;;18.77;64.15;100410.94;5015810;28;21065;-72
2023/07/04 00:39:48;;;;;;;7.00;2.40;;;;;;;18.78;65.10;100405.13;5015875;28;20502;-72
2023/07/04 00:42:14;;;;;;;8.47;2.40;;;;;;;18.70;64.45;100403.38;5015988;28;20450;-72
2023/07/04 00:44:47;;;;;;;9.43;2.00;;;;;;;18.72;65.22;100406.53;5015643;28;20641;-72
2023/07/04 00:47:21;;;;;;;15.67;2.43;;;;;;;18.70;68.27;100403.38;5015673;28;20432;-72
2023/07/04 00:49:57;;;;;;;10.23;2.13;;;;;;;18.70;69.46;100408.88;5015525;28;20463;-72
2023/07/04 00:52:28;;;;;;;7.60;2.47;;;;;;;18.68;66.14;100397.41;5015443;28;20464;-72
2023/07/04 00:54:57;;;;;;;6.53;1.70;;;;;;;18.71;63.43;100409.66;5015902;28;20840;-71
2023/07/04 00:57:25;;;;;;;7.60;2.50;;;;;;;18.73;66.08;100405.41;5015739;28;20440;-72
2023/07/04 00:59:58;;;;;;;6.73;2.20;;;;;;;18.73;65.21;100405.41;5015628;28;20464;-72
2023/07/04 01:02:29;;;;;;;7.80;2.23;;;;;;;18.75;67.40;100407.78;5015464;28;20421;-72
2023/07/04 01:04:58;;;;;;;12.13;2.00;;;;;;;18.67;67.22;100395.81;5014586;28;20432;-72
2023/07/04 01:07:32;;;;;;;7.73;3.03;;;;;;;18.67;68.40;100401.31;5015548;28;20522;-72
2023/07/04 01:10:10;;;;;;;8.33;2.83;;;;;;;18.65;68.42;100392.66;5015430;28;20551;-72
2023/07/04 01:12:39;;;;;;;7.67;2.27;;;;;;;18.60;65.38;100404.72;5015369;28;20542;-72
2023/07/04 01:15:07;;;;;;;6.27;2.00;;;;;;;18.58;67.06;100395.25;5015098;28;20546;-72
2023/07/04 01:17:33;;;;;;;8.43;2.37;;;;;;;18.56;68.29;100392.88;5015338;28;20444;-72
2023/07/04 01:20:03;;;;;;;13.40;2.93;;;;;;;18.53;68.69;100399.06;5014947;28;20496;-72
2023/07/04 01:22:36;;;;;;;14.13;3.40;;;;;;;18.50;65.87;100393.50;5015314;28;20816;-72
2023/07/04 01:25:11;;;;;;;6.20;2.30;;;;;;;18.51;65.16;100392.38;5015216;28;20428;-72
2023/07/04 01:27:40;;;;;;;12.13;2.30;;;;;;;18.54;64.16;100400.66;5015201;28;20482;-72
2023/07/04 01:30:10;;;;;;;9.43;2.67;;;;;;;18.53;65.82;100388.09;5014829;28;20479;-72
2023/07/04 01:32:37;;;;;;;6.30;2.07;;;;;;;18.50;64.84;100391.53;5014998;28;20546;-72
2023/07/04 01:35:07;;;;;;;8.17;2.17;;;;;;;18.51;64.96;100392.38;5014986;28;20448;-72
2023/07/04 01:37:34;;;;;;;11.90;2.50;;;;;;;18.51;64.11;100392.38;5014952;28;20466;-73
2023/07/04 01:40:01;;;;;;;9.00;2.40;;;;;;;18.52;65.24;100399.44;5014646;28;20848;-73
2023/07/04 01:42:31;;;;;;;8.17;2.73;;;;;;;18.48;66.86;100401.31;5014847;28;20444;-73
2023/07/04 01:45:00;;;;;;;8.27;2.57;;;;;;;18.50;65.02;100407.22;5015104;28;20559;-72
2023/07/04 01:47:26;;;;;;;7.40;2.10;;;;;;;18.52;64.61;100402.19;5015052;28;20443;-73
2023/07/04 01:49:53;;;;;;;9.10;2.63;;;;;;;18.57;63.87;100401.88;5014671;28;20502;-72
2023/07/04 01:52:20;;;;;;;9.80;2.70;;;;;;;18.57;64.73;100399.94;5014211;28;20480;-72
2023/07/04 01:54:46;;;;;;;7.73;2.50;;;;;;;18.55;66.33;100402.25;5014623;28;20624;-72
2023/07/04 01:57:13;;;;;;;9.40;2.70;;;;;;;18.57;68.20;100399.94;5014573;28;20445;-72
2023/07/04 01:59:40;;;;;;;8.20;2.00;;;;;;;18.53;65.41;100403.75;5014472;28;20496;-72
2023/07/04 02:02:08;;;;;;;9.90;1.83;;;;;;;18.54;64.72;100405.34;5014532;28;20523;-72
2023/07/04 02:04:34;;;;;;;11.10;2.60;;;;;;;18.57;66.71;100399.16;5014497;28;20478;-72
2023/07/04 02:07:01;;;;;;;9.10;2.50;;;;;;;18.56;67.20;100397.56;5014435;28;20512;-72
2023/07/04 02:09:28;;;;;;;9.03;2.37;;;;;;;18.56;64.63;100403.06;5013949;28;20495;-72
2023/07/04 02:11:54;;;;;;;7.40;1.80;;;;;;;18.62;62.80;100401.59;5014229;28;20479;-72
2023/07/04 02:14:21;;;;;;;7.23;2.20;;;;;;;18.63;63.58;100383.97;5013577;28;20448;-72
2023/07/04 02:16:49;;;;;;;8.90;1.90;;;;;;;18.63;63.78;100394.94;5013952;28;20885;-72
2023/07/04 02:19:17;;;;;;;6.43;2.10;;;;;;;18.64;65.53;100388.34;5013846;28;20464;-73
2023/07/04 02:21:44;;;;;;;5.30;2.07;;;;;;;18.66;62.87;100394.25;5014243;28;20444;-73
2023/07/04 02:24:11;;;;;;;8.60;2.37;;;;;;;18.66;63.31;100396.97;5013860;28;20448;-73
2023/07/04 02:26:39;;;;;;;6.37;2.00;;;;;;;18.71;62.96;100385.75;5014118;28;20483;-72
2023/07/04 02:29:05;;;;;;;6.20;1.83;;;;;;;18.72;62.38;100387.34;5013833;28;20483;-73
2023/07/04 02:31:32;;;;;;;10.90;2.90;;;;;;;18.78;62.31;100387.84;5014063;28;20503;-73
2023/07/04 02:33:59;;;;;;;7.83;2.30;;;;;;;18.81;62.40;100392.59;5013606;28;20520;-73
2023/07/04 02:36:27;;;;;;;14.30;2.97;;;;;;;18.78;62.25;100391.41;5013901;28;20446;-72
2023/07/04 02:38:53;;;;;;;9.83;2.40;;;;;;;18.81;61.86;100392.59;5013873;28;20503;-72
2023/07/04 02:41:20;;;;;;;7.37;2.13;;;;;;;18.83;62.02;100402.06;5013594;28;21021;-72
2023/07/04 02:43:47;;;;;;;6.17;1.97;;;;;;;18.78;62.42;100398.84;5013731;28;20957;-72
2023/07/04 02:46:13;;;;;;;9.73;2.43;;;;;;;18.78;62.82;100387.84;5013775;28;20487;-72
2023/07/04 02:48:41;;;;;;;6.23;1.60;;;;;;;18.73;62.81;100386.19;5013748;28;20471;-72
2023/07/04 02:51:08;;;;;;;6.97;1.73;;;;;;;18.75;62.99;100394.84;5013722;28;20447;-72
2023/07/04 02:53:36;;;;;;;6.30;1.93;;;;;;;18.76;64.44;100390.16;5013588;28;20566;-73
2023/07/04 02:56:02;;;;;;;7.13;1.83;;;;;;;18.75;63.59;100397.59;5013692;28;20571;-73
2023/07/04 02:58:29;;;;;;;7.30;2.33;;;;;;;18.73;62.90;100394.44;5013786;28;20468;-72
2023/07/04 03:00:55;;;;;;;7.67;2.17;;;;;;;18.74;62.41;100403.47;5013571;28;20440;-72
2023/07/04 03:03:22;;;;;;;8.33;3.43;;;;;;;18.72;62.74;100400.25;5013162;28;20881;-72
2023/07/04 03:05:49;;;;;;;7.23;2.33;;;;;;;18.62;64.25;100394.16;5013257;28;20444;-71
2023/07/04 03:08:15;;;;;;;12.70;3.60;;;;;;;18.58;64.59;100398.78;5013400;28;20543;-71
2023/07/04 03:10:45;;;;;;;11.30;2.77;;;;;;;18.55;64.42;100404.19;5013144;28;21006;-71
2023/07/04 03:13:12;;;;;;;16.33;3.87;;;;;;;18.46;66.77;100409.09;5013016;28;21002;-71
2023/07/04 03:15:38;;;;;;;7.47;2.37;;;;;;;18.45;64.91;100410.25;5013383;28;20458;-71
2023/07/04 03:18:05;;;;;;;9.50;2.77;;;;;;;18.39;65.61;100413.25;5013022;28;20530;-71
2023/07/04 03:20:32;;;;;;;7.17;2.40;;;;;;;18.31;66.03;100414.25;5013083;28;20535;-72
2023/07/04 03:22:58;;;;;;;7.10;2.23;;;;;;;18.27;65.43;100416.13;5013261;28;20475;-72
2023/07/04 03:25:25;;;;;;;12.10;2.57;;;;;;;18.27;65.49;100416.13;5012992;28;20450;-71
2023/07/04 03:27:53;;;;;;;12.30;3.17;;;;;;;18.32;63.96;100420.53;5015847;28;20451;-71
2023/07/04 03:30:20;;;;;;;6.90;2.50;;;;;;;18.29;64.14;100416.56;5017581;28;20499;-72
2023/07/04 03:32:46;;;;;;;8.83;2.53;;;;;;;18.25;64.55;100418.44;5017154;28;20490;-71
2023/07/04 03:35:13;;;;;;;12.63;3.43;;;;;;;18.19;65.47;100421.78;5017204;28;20539;-71
2023/07/04 03:37:40;;;;;;;7.10;2.60;;;;;;;18.17;65.45;100419.41;5017215;28;20448;-72
2023/07/04 03:40:09;;;;;;;9.53;3.03;;;;;;;18.19;65.74;100411.63;5017327;28;20468;-71
2023/07/04 03:42:37;;;;;;;9.80;2.00;;;;;;;18.11;65.79;100420.84;5017358;28;20447;-71
2023/07/04 03:45:07;;;;;;;8.50;1.97;;;;;;;18.13;65.36;100427.56;5016783;28;20969;-72
2023/07/04 03:47:34;;;;;;;10.60;2.80;;;;;;;18.11;66.44;100426.34;5017005;28;20523;-72
2023/07/04 03:50:00;;;;;;;13.53;2.20;;;;;;;18.10;66.00;100432.94;5016792;28;20465;-71
2023/07/04 03:52:27;;;;;;;8.10;3.10;;;;;;;18.05;66.89;100438.69;5016538;28;20455;-72
2023/07/04 03:54:53;;;;;;;8.93;2.40;;;;;;;18.02;67.12;100436.69;5016688;28;20955;-71
2023/07/04 03:57:20;;;;;;;6.37;1.60;;;;;;;17.97;68.50;100432.25;5017054;28;20440;-72
2023/07/04 03:59:47;;;;;;;7.57;2.50;;;;;;;17.93;66.56;100436.88;5016426;28;20543;-72
2023/07/04 04:02:15;;;;;;;7.50;2.13;;;;;;;17.93;67.29;100442.34;5016792;28;20559;-72
2023/07/04 04:04:42;;;;;;;8.20;2.67;;;;;;;17.93;68.60;100444.28;5016312;28;20917;-72
2023/07/04 04:07:10;;;;;;;12.50;2.43;;;;;;;17.90;68.02;100445.78;5016709;28;20518;-72
2023/07/04 04:09:37;;;;;;;7.40;2.07;;;;;;;17.97;67.46;100454.16;5016672;28;20899;-72
2023/07/04 04:12:04;;;;;;;8.60;3.30;;;;;;;18.03;67.95;100447.28;5016626;28;20494;-72
2023/07/04 04:14:32;;;;;;;8.50;2.30;;;;;;;18.04;66.89;100451.63;5016494;28;20554;-72
2023/07/04 04:16:59;;;;;;;12.17;2.63;;;;;;;18.11;68.20;100456.50;5016543;28;20523;-72
2023/07/04 04:19:28;;;;;;;7.47;2.33;;;;;;;18.06;66.97;100462.22;5016113;28;20464;-72
2023/07/04 04:21:55;;;;;;;8.93;2.47;;;;;;;18.06;66.41;100464.97;5016132;28;20875;-72
2023/07/04 04:24:23;;;;;;;8.00;2.53;;;;;;;18.06;66.20;100470.44;5016085;28;20448;-71
2023/07/04 04:26:50;;;;;;;9.60;2.60;;;;;;;18.10;67.90;100477.59;5016073;28;20951;-72
2023/07/04 04:29:17;;;;;;;6.50;1.63;;;;;;;18.19;67.76;100480.16;5016056;28;20541;-71
2023/07/04 04:31:45;;;;;;;12.07;2.53;;;;;;;18.31;66.22;100485.56;5016265;28;20510;-72
2023/07/04 04:34:12;;;;;;;10.47;2.30;;;;;;;18.36;65.99;100477.06;5016102;28;20484;-72
2023/07/04 04:36:40;;;;;;;6.60;1.80;;;;;;;18.44;66.90;100489.00;5016387;28;20451;-72
2023/07/04 04:39:07;;;;;;;10.17;2.50;;;;;;;18.43;67.60;100487.41;5015800;28;20486;-71
2023/07/04 04:41:33;;;;;;;7.80;2.70;;;;;;;18.35;68.40;100494.66;5016096;28;20527;-73
2023/07/04 04:44:04;;;;;;;5.67;1.97;;;;;;;18.42;66.87;100502.28;5015738;28;20531;-72
2023/07/04 04:46:31;;;;;;;7.73;2.53;;;;;;;18.41;67.99;100501.47;5015976;28;20808;-72
2023/07/04 04:48:58;;;;;;;8.43;2.23;;;;;;;18.44;65.75;100507.41;5015538;28;20998;-72
2023/07/04 04:51:25;;;;;;;7.57;2.20;;;;;;;18.48;65.81;100511.03;5016029;28;20448;-73
2023/07/04 04:53:53;;;;;;;7.80;2.33;;;;;;;18.51;66.84;100513.06;5015380;28;20583;-72
2023/07/04 04:56:20;;;;;;;9.47;2.50;;;;;;;18.52;66.66;100522.88;5015758;28;20466;-72
2023/07/04 04:58:47;;;;;;;12.77;2.30;;;;;;;18.58;66.09;100532.41;5015666;28;20535;-72
2023/07/04 05:01:16;;;;;;;8.20;2.40;;;;;;;18.63;65.27;100529.41;5015382;28;20472;-72
2023/07/04 05:03:42;;;;;;;6.67;1.90;;;;;;;18.61;66.14;100518.78;5015619;28;20730;-72
2023/07/04 05:06:09;;;;;;;6.07;1.67;;;;;;;18.52;66.42;100520.94;5015610;28;20451;-72
2023/07/04 05:08:36;;;;;;;10.50;3.00;;;;;;;18.51;65.82;100527.56;5015510;28;20464;-73
2023/07/04 05:11:07;;;;;;;11.40;2.60;;;;;;;18.47;66.35;100531.38;5015419;28;21006;-72
2023/07/04 05:13:34;;;;;;;7.10;2.60;;;;;;;18.47;66.28;100542.34;5015378;28;20553;-72
2023/07/04 05:16:01;;;;;;;10.13;2.40;;;;;;;18.45;66.59;100544.63;5015063;28;20487;-72
2023/07/04 05:18:28;;;;;;;8.23;2.20;;;;;;;18.36;68.63;100553.06;5015233;28;20558;-72
2023/07/04 05:21:07;;;;;;;13.83;2.73;;;;;;;18.34;67.72;100550.66;5015051;28;20502;-72
2023/07/04 05:23:34;;;;;;;11.60;2.13;;;;;;;18.28;69.15;100554.03;5015255;28;20468;-72
2023/07/04 05:26:02;;;;;;;9.13;2.30;;;;;;;18.28;69.95;100560.31;5014888;28;20444;-72
2023/07/04 05:28:31;;;;;;;6.80;2.13;;;;;;;18.40;70.10;100557.47;5014944;28;20501;-72
2023/07/04 05:30:58;;;;;;;10.73;2.70;;;;;;;18.55;69.80;100560.56;5015262;28;20448;-72
2023/07/04 05:33:25;;;;;;;8.70;1.97;;;;;;;18.65;69.86;100560.81;5014603;28;20830;-72
2023/07/04 05:35:52;;;;;;;5.70;1.93;;;;;;;18.79;68.58;100574.09;5015285;28;20531;-72
2023/07/04 05:38:18;;;;;;;7.17;2.13;;;;;;;18.90;66.67;100572.41;5014887;28;20503;-72
2023/07/04 05:40:45;;;;;;;5.90;1.80;;;;;;;18.95;66.17;100578.75;5014956;28;20450;-72
2023/07/04 05:43:11;;;;;;;7.83;1.50;;;;;;;18.93;66.39;100565.41;5015112;28;20467;-72
2023/07/04 05:45:48;;;;;;;5.07;1.47;;;;;;;18.83;66.62;100577.72;5014823;28;20446;-72
2023/07/04 05:48:14;;;;;;;8.57;1.63;;;;;;;18.64;66.14;100575.69;5014713;28;20438;-71
2023/07/04 05:50:50;;;;;;;7.10;1.67;;;;;;;18.60;66.02;100574.03;5013968;28;20440;-73
2023/07/04 05:53:18;;;;;;;5.27;1.50;;;;;;;18.20;67.60;100553.06;5014414;28;20848;-74
2023/07/04 05:55:44;;;;;;;6.43;1.87;;;;;;;18.13;68.87;100556.41;5014707;28;20474;-74
2023/07/04 05:58:11;;;;;;;5.50;1.63;;;;;;;18.14;68.83;100579.94;5014564;28;20458;-74
2023/07/04 06:00:39;;;;;;;5.53;1.10;;;;;;;18.04;69.86;100585.13;5014230;28;21039;-72
2023/07/04 06:03:06;;;;;;;5.00;1.30;;;;;;;18.15;70.24;100588.97;5014580;28;20443;-72
2023/07/04 06:05:39;;;;;;;5.27;1.30;;;;;;;18.20;70.20;100585.97;5014220;28;20455;-71
2023/07/04 06:08:06;;;;;;;5.57;1.37;;;;;;;18.33;70.43;100590.22;5014203;28;20930;-72
2023/07/04 06:10:33;;;;;;;5.17;1.23;;;;;;;18.39;69.93;100597.03;5014434;28;20523;-73
2023/07/04 06:12:59;;;;;;;5.70;1.43;;;;;;;18.31;69.43;100599.94;5014354;28;20860;-73
2023/07/04 06:15:27;;;;;;;9.80;1.97;;;;;;;18.28;70.25;100601.47;5013981;28;20538;-72
2023/07/04 06:17:55;;;;;;;7.43;1.60;;;;;;;18.17;70.04;100599.56;5014324;28;20476;-72
2023/07/04 06:20:22;;;;;;;7.10;1.60;;;;;;;18.16;71.46;100593.31;5014274;28;20527;-71
2023/07/04 06:22:49;;;;;;;7.07;1.57;;;;;;;18.17;71.01;100589.41;5013877;28;20958;-72
2023/07/04 06:25:16;;;;;;;5.90;1.63;;;;;;;18.19;72.35;100592.56;5014124;28;20535;-72
2023/07/04 06:27:44;;;;;;;6.27;1.63;;;;;;;18.22;71.20;100591.88;5014087;28;20515;-72
2023/07/04 06:30:12;;;;;;;6.43;1.50;;;;;;;18.18;74.10;100584.72;5013890;28;20499;-72
2023/07/04 06:32:39;;;;;;;7.27;1.80;;;;;;;18.30;72.65;100587.38;5014018;28;20440;-72
2023/07/04 06:35:07;;;;;;;6.90;1.80;;;;;;;18.37;70.35;100593.84;5014100;28;20515;-72
2023/07/04 06:37:34;;;;;;;5.50;1.43;;;;;;;18.43;70.27;100596.31;5022131;23;20990;-80
2023/07/04 06:40:01;;;;;;;6.80;1.97;;;;;;;18.47;70.80;100597.22;5020142;28;20452;-80
2023/07/04 06:42:29;;;;;;;6.80;1.17;;;;;;;18.57;70.10;100596.69;5017666;28;20524;-83
2023/07/04 06:44:55;;;;;;;6.10;1.53;;;;;;;18.58;69.12;100604.53;5017414;28;20443;-81
2023/07/04 06:47:22;;;;;;;6.10;1.80;;;;;;;18.65;69.33;100601.19;5039254;23;20582;-66
2023/07/04 06:49:49;;;;;;;5.50;1.63;;;;;;;18.69;68.98;100607.59;5013826;28;20450;-67
2023/07/04 06:52:17;;;;;;;14.60;1.63;;;;;;;18.77;68.75;100603.88;5013430;28;20484;-66
2023/07/04 06:54:45;;;;;;;9.90;1.73;;;;;;;18.88;67.86;100612.34;5013869;28;20491;-65
2023/07/04 06:57:12;;;;;;;9.07;1.13;;;;;;;18.95;67.85;100608.94;5013591;28;20472;-67
2023/07/04 06:59:38;;;;;;;5.80;1.40;;;;;;;18.99;69.32;100618.06;5013603;28;20452;-67
2023/07/04 07:02:07;;;;;;;6.70;0.90;;;;;;;19.16;67.24;100617.69;5013091;28;20861;-67
2023/07/04 07:04:33;;;;;;;6.73;1.43;;;;;;;19.26;66.94;100628.13;5013512;28;20810;-67
2023/07/04 07:07:00;;;;;;;5.30;1.07;;;;;;;19.23;66.57;100625.28;5013455;28;20444;-66
2023/07/04 07:09:30;;;;;;;7.00;1.73;;;;;;;19.34;66.41;100626.31;5013518;28;20531;-67
2023/07/04 07:11:56;;;;;;;7.23;1.63;;;;;;;19.38;65.52;100630.72;5013447;28;20440;-67
2023/07/04 07:14:23;;;;;;;6.60;1.60;;;;;;;19.42;64.80;100641.78;5013183;28;20861;-67
2023/07/04 07:16:50;;;;;;;4.53;1.33;;;;;;;19.44;64.12;100644.22;5013543;28;20444;-67
2023/07/04 07:19:16;;;;;;;6.80;1.60;;;;;;;19.36;64.89;100649.53;5013419;28;20440;-68
2023/07/04 07:21:43;;;;;;;8.23;2.23;;;;;;;19.49;66.60;100643.91;5013343;28;20444;-67
2023/07/04 07:24:10;;;;;;;7.03;2.00;;;;;;;19.58;66.33;100645.28;5013042;28;20543;-67
2023/07/04 07:26:38;;;;;;;8.13;1.43;;;;;;;19.63;66.71;100649.75;5012983;28;20913;-67
2023/07/04 07:29:04;;;;;;;7.90;1.40;;;;;;;19.65;65.47;100650.16;5012912;28;20464;-67
2023/07/04 07:31:31;;;;;;;6.43;1.73;;;;;;;19.62;65.35;100657.19;5013037;28;20527;-67
2023/07/04 07:33:58;;;;;;;5.90;1.50;;;;;;;19.58;63.31;100656.28;5013236;28;20488;-66
2023/07/04 07:36:26;;;;;;;6.53;1.67;;;;;;;19.62;63.33;100650.91;5013160;28;20490;-66
2023/07/04 07:38:55;;;;;;;6.03;1.77;;;;;;;19.69;64.26;100653.00;5013288;28;20468;-66
2023/07/04 07:41:26;;;;;;;5.57;1.73;;;;;;;19.65;60.73;100661.94;5013174;28;20474;-67
2023/07/04 07:43:54;;;;;;;4.73;1.20;;;;;;;19.61;61.80;100663.03;5013101;28;20473;-67
2023/07/04 07:46:21;;;;;;;7.00;2.30;;;;;;;19.56;61.53;100655.84;5012944;28;20439;-68
2023/07/04 07:48:49;;;;;;;5.60;1.33;;;;;;;19.60;60.57;100669.66;5013145;28;20470;-66
2023/07/04 07:51:17;;;;;;;7.60;1.37;;;;;;;19.61;61.44;100660.28;5013100;28;20464;-68
2023/07/04 07:53:45;;;;;;;6.87;2.00;;;;;;;19.50;62.16;100659.25;5012708;28;20543;-71
2023/07/04 07:56:14;;;;;;;8.00;1.70;;;;;;;19.58;62.54;100667.28;5013380;28;20436;-69
2023/07/04 07:58:41;;;;;;;9.80;1.97;;;;;;;19.70;63.52;100663.66;5012976;28;20547;-69
2023/07/04 08:01:14;;;;;;;7.37;1.70;;;;;;;19.87;60.28;100660.44;5013319;28;20447;-69
2023/07/04 08:03:42;;;;;;;8.00;2.30;;;;;;;20.00;61.04;100668.53;5013079;28;20442;-69
2023/07/04 08:06:08;;;;;;;5.70;1.03;;;;;;;20.07;60.37;100669.47;5012999;28;20444;-66
2023/07/04 08:08:35;;;;;;;5.80;1.13;;;;;;;20.16;58.28;100669.25;5012851;28;20571;-67
2023/07/04 08:11:02;;;;;;;8.80;1.70;;;;;;;20.23;58.40;100663.91;5013015;28;20444;-68
2023/07/04 08:13:28;;;;;;;5.10;1.53;;;;;;;20.37;58.41;100664.16;5014632;28;20526;-67
2023/07/04 08:15:55;;;;;;;6.40;1.73;;;;;;;20.47;58.08;100661.97;5016455;28;20483;-68
2023/07/04 08:18:24;;;;;;;6.17;1.40;;;;;;;20.45;56.82;100678.03;5016038;28;20455;-68
2023/07/04 08:20:57;;;;;;;4.60;1.00;;;;;;;20.51;57.39;100673.88;5016433;28;20448;-68
2023/07/04 08:23:24;;;;;;;6.33;1.37;;;;;;;20.58;57.63;100672.00;5016378;28;20876;-68
2023/07/04 08:25:51;;;;;;;5.30;1.17;;;;;;;20.54;57.57;100668.44;5016416;28;20526;-68
2023/07/04 08:28:18;;;;;;;9.77;2.17;;;;;;;20.59;58.33;100670.06;5016234;28;20558;-68
2023/07/04 08:30:45;;;;;;;5.73;1.53;;;;;;;20.78;57.07;100681.00;5016263;28;20448;-68
2023/07/04 08:33:17;;;;;;;5.10;1.13;;;;;;;20.77;55.90;100698.69;5015957;28;20443;-67
2023/07/04 08:35:54;;;;;;;5.93;1.60;;;;;;;20.65;54.81;100682.38;5015853;28;20467;-68
2023/07/04 08:38:21;;;;;;;8.83;1.67;;;;;;;20.60;55.46;100685.44;5015800;28;20460;-68
2023/07/04 08:40:48;;;;;;;5.07;1.20;;;;;;;20.77;55.93;100684.94;5015826;28;20539;-67
2023/07/04 08:43:20;;;;;;;4.70;1.10;;;;;;;20.82;53.88;100686.59;5016062;28;20527;-68
2023/07/04 08:45:48;;;;;;;4.90;1.00;;;;;;;20.79;55.78;100690.06;5016216;28;20456;-67
2023/07/04 08:48:17;;;;;;;7.13;2.27;;;;;;;20.84;52.79;100685.03;5015700;28;20904;-67
2023/07/04 08:50:47;;;;;;;4.97;1.20;;;;;;;20.92;54.09;100695.00;5015984;28;20476;-67
2023/07/04 08:53:18;;;;;;;4.80;1.13;;;;;;;20.89;54.84;100695.78;5015616;28;20437;-69
2023/07/04 08:55:54;;;;;;;6.40;1.50;;;;;;;20.97;53.75;100680.13;5015798;28;20503;-69
2023/07/04 08:58:25;;;;;;;6.30;1.73;;;;;;;21.01;53.73;100680.19;5015771;28;20474;-67
2023/07/04 09:00:55;;;;;;;4.50;1.00;;;;;;;21.15;54.45;100694.97;5015507;28;20424;-68
2023/07/04 09:03:31;;;;;;;5.43;1.43;;;;;;;21.16;53.13;100699.34;5015694;28;20550;-68
2023/07/04 09:06:07;;;;;;;6.30;1.40;;;;;;;21.24;53.75;100688.41;5015975;28;20444;-68
2023/07/04 09:08:50;;;;;;;5.20;1.40;;;;;;;21.31;53.64;100678.34;5015446;28;20467;-68
2023/07/04 09:11:18;;;;;;;13.43;1.87;;;;;;;21.42;54.28;100682.00;5015635;28;20460;-68
2023/07/04 09:13:47;;;;;;;5.27;1.37;;;;;;;21.46;50.03;100686.78;5015586;28;20444;-67
2023/07/04 09:16:19;;;;;;;5.20;1.20;;;;;;;21.49;51.85;100686.84;5015672;28;20492;-68
2023/07/04 09:18:56;;;;;;;5.87;1.20;;;;;;;21.37;50.86;100693.38;5015646;28;20495;-67
2023/07/04 09:21:25;;;;;;;5.07;1.40;;;;;;;21.47;50.70;100696.66;5015524;28;20515;-68
2023/07/04 09:23:55;;;;;;;5.67;1.40;;;;;;;21.60;48.70;100700.75;5014575;28;20448;-67
2023/07/04 09:26:25;;;;;;;10.17;1.77;;;;;;;21.60;48.64;100696.06;5014864;28;20440;-68
2023/07/04 09:28:54;;;;;;;10.20;1.53;;;;;;;21.32;51.24;100690.16;5015009;28;20509;-68
2023/07/04 09:31:24;;;;;;;5.20;1.50;;;;;;;21.27;52.14;100693.97;5015103;28;20549;-68
2023/07/04 09:33:53;;;;;;;5.23;1.10;;;;;;;21.26;51.01;100689.66;5014836;28;20951;-67
2023/07/04 09:36:26;;;;;;;5.57;1.23;;;;;;;21.22;50.28;100691.56;5015252;28;20826;-67
2023/07/04 09:38:55;;;;;;;5.83;1.30;;;;;;;21.20;52.33;100691.09;5015047;28;20471;-67
2023/07/04 09:41:25;;;;;;;5.60;1.00;;;;;;;21.30;49.25;100693.25;5015209;28;20452;-68
2023/07/04 09:43:52;;;;;;;4.70;0.90;;;;;;;21.33;49.35;100698.03;5014778;28;20428;-67
2023/07/04 09:46:23;;;;;;;4.63;1.10;;;;;;;21.35;51.18;100701.22;5014873;28;20455;-64
2023/07/04 09:48:50;;;;;;;4.93;1.10;;;;;;;21.46;52.23;100693.09;5014832;28;20467;-66
2023/07/04 09:51:27;;;;;;;4.77;1.10;;;;;;;21.59;48.77;100699.19;5014608;28;21005;-65
2023/07/04 09:54:12;;;;;;;4.77;1.20;;;;;;;21.75;50.04;100719.09;5014734;28;20466;-67
2023/07/04 09:56:40;;;;;;;10.53;1.80;;;;;;;21.79;49.35;100702.63;5015519;28;20474;-67
2023/07/04 09:59:15;;;;;;;5.03;1.23;;;;;;;21.82;49.81;100697.13;5014803;28;20502;-67
2023/07/04 10:01:44;;;;;;;4.57;1.07;;;;;;;21.94;48.11;100695.31;5014652;28;20432;-67
2023/07/04 10:04:14;;;;;;;4.63;1.00;;;;;;;22.15;49.87;100704.66;5014224;28;20468;-67
2023/07/04 10:06:43;;;;;;;8.03;1.20;;;;;;;22.25;47.44;100713.44;5014523;28;20510;-68
2023/07/04 10:09:18;;;;;;;5.50;1.17;;;;;;;22.17;47.72;100710.56;5014394;28;20494;-67
2023/07/04 10:11:47;;;;;;;5.10;1.13;;;;;;;22.20;47.47;100706.28;5014515;28;20765;-67
2023/07/04 10:14:14;;;;;;;5.93;1.17;;;;;;;22.23;47.71;100702.00;5014021;28;20493;-68
2023/07/04 10:16:47;;;;;;;7.20;1.40;;;;;;;22.43;47.68;100719.94;5014049;28;20498;-67
2023/07/04 10:19:16;;;;;;;4.63;1.00;;;;;;;22.58;46.78;100709.84;5013940;28;20468;-67
2023/07/04 10:21:48;;;;;;;4.40;0.90;;;;;;;22.56;45.98;100709.41;5014500;28;20527;-66
2023/07/04 10:24:18;;;;;;;6.00;1.40;;;;;;;22.58;47.74;100707.88;5014287;28;20522;-67
2023/07/04 10:26:48;;;;;;;4.90;1.10;;;;;;;22.71;46.48;100716.69;5014184;28;20440;-67
2023/07/04 10:29:16;;;;;;;4.70;1.20;;;;;;;22.81;46.81;100699.41;5014012;28;20476;-67
2023/07/04 10:31:43;;;;;;;9.40;1.43;;;;;;;22.94;45.47;100697.19;5014367;28;20538;-66
2023/07/04 10:34:16;;;;;;;4.83;1.20;;;;;;;22.83;45.46;100712.81;5014080;28;20475;-67
2023/07/04 10:36:44;;;;;;;5.43;1.50;;;;;;;22.89;45.84;100717.66;5013697;28;20909;-67
2023/07/04 10:39:16;;;;;;;5.40;1.30;;;;;;;22.88;45.61;100718.78;5013608;28;20468;-67
2023/07/04 10:41:53;;;;;;;5.13;0.87;;;;;;;22.53;44.83;100713.72;5013966;28;20431;-67
2023/07/04 10:44:22;;;;;;;5.87;1.60;;;;;;;22.16;46.11;100717.28;5013844;28;20478;-67
2023/07/04 10:46:54;;;;;;;5.83;1.40;;;;;;;22.11;46.97;100714.03;5013675;28;20815;-67
2023/07/04 10:49:25;;;;;;;4.70;1.10;;;;;;;22.09;47.85;100708.09;5013789;28;20535;-68
2023/07/04 10:52:00;;;;;;;4.93;1.50;;;;;;;22.14;47.04;100718.84;5013822;28;20448;-68
2023/07/04 10:54:26;;;;;;;4.47;1.07;;;;;;;22.27;47.87;100728.44;5013682;28;20424;-67
2023/07/04 10:56:56;;;;;;;9.67;1.70;;;;;;;22.30;47.29;100721.38;5013650;28;20448;-65
2023/07/04 10:59:29;;;;;;;6.20;1.83;;;;;;;22.17;47.58;100718.06;5012930;28;20442;-68
2023/07/04 11:02:01;;;;;;;5.50;1.70;;;;;;;22.17;49.15;100729.09;5013355;28;20478;-66
2023/07/04 11:04:32;;;;;;;7.63;2.20;;;;;;;22.12;49.35;100726.69;5013333;28;20907;-68
2023/07/04 11:07:03;;;;;;;5.10;1.10;;;;;;;22.37;49.13;100732.50;5013246;28;20432;-67
2023/07/04 11:09:34;;;;;;;4.90;1.40;;;;;;;22.65;49.14;100726.47;5013474;28;20432;-67
2023/07/04 11:12:03;;;;;;;10.73;1.83;;;;;;;22.72;48.25;100725.75;5013168;28;20927;-67
2023/07/04 11:14:33;;;;;;;5.27;1.60;;;;;;;22.60;49.26;100732.34;5013276;28;20448;-66
2023/07/04 11:17:03;;;;;;;8.73;1.87;;;;;;;22.58;49.89;100732.72;5013567;28;20884;-70
2023/07/04 11:19:34;;;;;;;5.30;1.53;;;;;;;22.60;47.56;100729.56;5012406;28;20459;-70
2023/07/04 11:22:15;;;;;;;7.13;1.43;;;;;;;22.65;47.55;100737.50;5012371;28;20494;-66
2023/07/04 11:24:45;;;;;;;5.40;1.67;;;;;;;22.72;46.48;100734.84;5013103;28;20882;-67
2023/07/04 11:27:14;;;;;;;4.83;1.20;;;;;;;22.99;47.36;100745.75;5013384;28;20470;-66
2023/07/04 11:30:00;;;;;;;5.90;1.93;;;;;;;23.20;45.78;100734.06;5013339;28;20444;-68